createdAt,value
2023-02-11T00:00:05.742Z,1.93
2023-02-11T00:01:06.197Z,1.95
2023-02-11T00:02:05.790Z,1.91
2023-02-11T00:03:05.759Z,1.89
2023-02-11T00:04:05.714Z,1.89
2023-02-11T00:05:05.702Z,1.81
2023-02-11T00:06:06.222Z,1.87
2023-02-11T00:07:05.682Z,1.80
2023-02-11T00:08:05.664Z,1.77
2023-02-11T00:09:05.658Z,1.75
2023-02-11T00:10:05.642Z,1.74
2023-02-11T00:11:05.928Z,1.73
2023-02-11T00:12:05.623Z,1.69
2023-02-11T00:13:05.623Z,1.71
2023-02-11T00:14:05.604Z,1.69
2023-02-11T00:15:05.599Z,1.67
2023-02-11T00:16:05.963Z,1.69
2023-02-11T00:17:05.574Z,1.64
2023-02-11T00:18:05.556Z,1.62
2023-02-11T00:19:05.560Z,1.63
2023-02-11T00:20:08.163Z,1.57
2023-02-11T00:21:05.542Z,1.57
2023-02-11T00:22:05.524Z,1.59
2023-02-11T00:23:05.507Z,1.57
2023-02-11T00:24:05.494Z,1.56
2023-02-11T00:25:05.491Z,1.53
2023-02-11T00:26:05.502Z,1.52
2023-02-11T00:27:05.477Z,1.55
2023-02-11T00:28:05.517Z,1.49
2023-02-11T00:29:05.448Z,1.52
2023-02-11T00:30:05.448Z,1.56
2023-02-11T00:31:05.606Z,1.55
2023-02-11T00:32:05.442Z,1.59
2023-02-11T00:33:05.407Z,1.53
2023-02-11T00:34:05.387Z,1.52
2023-02-11T00:35:05.381Z,1.52
2023-02-11T00:36:05.395Z,1.49
2023-02-11T00:37:05.380Z,1.48
2023-02-11T00:38:05.343Z,1.49
2023-02-11T00:39:05.337Z,1.55
2023-02-11T00:40:06.788Z,1.52
2023-02-11T00:41:05.321Z,1.55
2023-02-11T00:42:05.305Z,1.56
2023-02-11T00:43:05.296Z,1.53
2023-02-11T00:44:05.279Z,1.55
2023-02-11T00:45:05.272Z,1.57
2023-02-11T00:46:05.320Z,1.55
2023-02-11T00:47:05.255Z,1.59
2023-02-11T00:48:05.237Z,1.57
2023-02-11T00:49:05.244Z,1.56
2023-02-11T00:50:05.215Z,1.59
2023-02-11T00:51:05.208Z,1.55
2023-02-11T00:52:05.205Z,1.56
2023-02-11T00:53:05.190Z,1.56
2023-02-11T00:54:05.197Z,1.56
2023-02-11T00:55:05.171Z,1.53
2023-02-11T00:56:05.156Z,1.56
2023-02-11T00:57:05.154Z,1.55
2023-02-11T00:58:05.133Z,1.56
2023-02-11T00:59:05.130Z,1.59
2023-02-11T01:00:05.116Z,1.55
2023-02-11T01:01:05.125Z,1.53
2023-02-11T01:02:05.110Z,1.59
2023-02-11T01:03:05.087Z,1.56
2023-02-11T01:04:05.081Z,1.55
2023-02-11T01:05:05.109Z,1.56
2023-02-11T01:06:05.044Z,1.56
2023-02-11T01:07:05.046Z,1.56
2023-02-11T01:08:05.027Z,1.57
2023-02-11T01:09:05.024Z,1.57
2023-02-11T01:10:05.009Z,1.56
2023-02-11T01:11:05.006Z,1.60
2023-02-11T01:12:05.004Z,1.62
2023-02-11T01:13:04.981Z,1.59
2023-02-11T01:14:04.972Z,1.63
2023-02-11T01:15:04.961Z,1.67
2023-02-11T01:16:05.059Z,1.73
2023-02-11T01:17:04.954Z,1.74
2023-02-11T01:18:04.931Z,1.74
2023-02-11T01:19:04.924Z,1.78
2023-02-11T01:20:04.912Z,1.78
2023-02-11T01:21:04.906Z,1.77
2023-02-11T01:22:04.887Z,1.74
2023-02-11T01:23:04.879Z,1.75
2023-02-11T01:24:04.871Z,1.77
2023-02-11T01:25:04.861Z,1.78
2023-02-11T01:26:04.842Z,1.84
2023-02-11T01:27:05.590Z,1.81
2023-02-11T01:28:04.843Z,1.82
2023-02-11T01:29:04.818Z,1.85
2023-02-11T01:30:04.806Z,1.84
2023-02-11T01:31:04.902Z,1.81
2023-02-11T01:32:04.830Z,1.80
2023-02-11T01:33:04.775Z,1.84
2023-02-11T01:34:04.764Z,1.81
2023-02-11T01:35:04.764Z,1.84
2023-02-11T01:36:04.764Z,1.80
2023-02-11T01:37:05.374Z,1.80
2023-02-11T01:38:04.719Z,1.80
2023-02-11T01:39:04.710Z,1.80
2023-02-11T01:40:04.705Z,1.78
2023-02-11T01:41:04.704Z,1.80
2023-02-11T01:42:05.449Z,1.74
2023-02-11T01:43:04.676Z,1.81
2023-02-11T01:44:04.657Z,1.81
2023-02-11T01:45:04.661Z,1.82
2023-02-11T01:46:04.730Z,1.81
2023-02-11T01:47:05.480Z,1.81
2023-02-11T01:48:04.623Z,1.82
2023-02-11T01:49:04.672Z,1.82
2023-02-11T01:50:04.598Z,1.84
2023-02-11T01:51:04.593Z,1.81
2023-02-11T01:52:04.913Z,1.85
2023-02-11T01:53:04.569Z,1.84
2023-02-11T01:54:04.551Z,1.81
2023-02-11T01:55:04.549Z,1.82
2023-02-11T01:56:04.544Z,1.81
2023-02-11T01:57:05.148Z,1.84
2023-02-11T01:58:04.508Z,1.85
2023-02-11T01:59:04.504Z,1.81
2023-02-11T02:00:04.519Z,1.89
2023-02-11T02:01:04.480Z,1.82
2023-02-11T02:02:04.791Z,1.85
2023-02-11T02:03:04.471Z,1.91
2023-02-11T02:04:04.510Z,1.87
2023-02-11T02:05:04.444Z,1.91
2023-02-11T02:06:04.430Z,1.91
2023-02-11T02:07:04.740Z,1.93
2023-02-11T02:08:04.407Z,1.93
2023-02-11T02:09:04.410Z,1.95
2023-02-11T02:10:04.385Z,1.95
2023-02-11T02:11:04.382Z,1.95
2023-02-11T02:12:05.047Z,2.00
2023-02-11T02:13:04.384Z,1.97
2023-02-11T02:14:04.369Z,1.93
2023-02-11T02:15:04.336Z,1.95
2023-02-11T02:16:04.381Z,2.04
2023-02-11T02:17:04.601Z,1.97
2023-02-11T02:18:04.320Z,1.99
2023-02-11T02:19:04.307Z,2.01
2023-02-11T02:20:04.342Z,2.03
2023-02-11T02:21:04.275Z,1.99
2023-02-11T02:22:04.926Z,2.00
2023-02-11T02:23:04.259Z,2.03
2023-02-11T02:24:04.246Z,2.00
2023-02-11T02:25:04.244Z,1.97
2023-02-11T02:26:04.222Z,1.97
2023-02-11T02:27:05.064Z,2.00
2023-02-11T02:28:04.224Z,1.97
2023-02-11T02:29:04.189Z,1.99
2023-02-11T02:30:04.185Z,1.97
2023-02-11T02:31:04.274Z,2.01
2023-02-11T02:32:04.528Z,1.92
2023-02-11T02:33:20.488Z,1.93
2023-02-11T02:34:04.142Z,2.00
2023-02-11T02:35:04.134Z,1.99
2023-02-11T02:36:04.108Z,1.93
2023-02-11T02:37:04.458Z,1.95
2023-02-11T02:38:04.092Z,2.01
2023-02-11T02:39:04.084Z,1.99
2023-02-11T02:40:04.073Z,1.95
2023-02-11T02:41:04.065Z,2.00
2023-02-11T02:42:04.852Z,2.01
2023-02-11T02:43:04.049Z,2.01
2023-02-11T02:44:04.029Z,1.99
2023-02-11T02:45:04.022Z,2.03
2023-02-11T02:46:04.011Z,2.01
2023-02-11T02:47:04.577Z,1.99
2023-02-11T02:48:03.987Z,2.03
2023-02-11T02:49:03.993Z,2.06
2023-02-11T02:50:03.969Z,2.07
2023-02-11T02:51:03.976Z,2.06
2023-02-11T02:52:04.274Z,2.01
2023-02-11T02:53:03.942Z,2.07
2023-02-11T02:54:03.925Z,2.06
2023-02-11T02:55:03.917Z,2.11
2023-02-11T02:56:03.914Z,2.06
2023-02-11T02:57:03.902Z,2.06
2023-02-11T02:58:03.888Z,2.11
2023-02-11T02:59:03.875Z,2.07
2023-02-11T03:00:03.867Z,2.06
2023-02-11T03:01:03.907Z,2.10
2023-02-11T03:02:03.850Z,2.07
2023-02-11T03:03:03.839Z,2.06
2023-02-11T03:04:03.975Z,2.07
2023-02-11T03:05:03.814Z,2.10
2023-02-11T03:06:03.802Z,2.11
2023-02-11T03:07:03.813Z,2.10
2023-02-11T03:08:03.784Z,2.07
2023-02-11T03:09:03.775Z,2.11
2023-02-11T03:10:03.766Z,2.07
2023-02-11T03:11:03.755Z,2.10
2023-02-11T03:12:03.748Z,2.11
2023-02-11T03:13:03.745Z,2.15
2023-02-11T03:14:03.718Z,2.15
2023-02-11T03:15:03.726Z,2.11
2023-02-11T03:16:03.768Z,2.12
2023-02-11T03:17:03.698Z,2.12
2023-02-11T03:18:03.679Z,2.11
2023-02-11T03:19:03.669Z,2.14
2023-02-11T03:20:03.669Z,2.12
2023-02-11T03:21:03.657Z,2.15
2023-02-11T03:22:03.646Z,2.11
2023-02-11T03:23:03.644Z,2.12
2023-02-11T03:24:03.620Z,2.17
2023-02-11T03:25:03.620Z,2.15
2023-02-11T03:26:03.597Z,2.15
2023-02-11T03:27:03.598Z,2.15
2023-02-11T03:28:03.642Z,2.15
2023-02-11T03:29:03.571Z,2.12
2023-02-11T03:30:03.555Z,2.14
2023-02-11T03:31:03.639Z,2.14
2023-02-11T03:32:03.562Z,2.14
2023-02-11T03:33:03.528Z,2.12
2023-02-11T03:34:03.530Z,2.12
2023-02-11T03:35:03.514Z,2.14
2023-02-11T03:36:03.499Z,2.17
2023-02-11T03:37:03.510Z,2.12
2023-02-11T03:38:03.488Z,2.12
2023-02-11T03:39:03.479Z,2.12
2023-02-11T03:40:03.458Z,2.11
2023-02-11T03:41:03.448Z,2.12
2023-02-11T03:42:03.427Z,2.11
2023-02-11T03:43:03.430Z,2.15
2023-02-11T03:44:03.420Z,2.17
2023-02-11T03:45:03.407Z,2.15
2023-02-11T03:46:03.480Z,2.11
2023-02-11T03:47:03.383Z,2.12
2023-02-11T03:48:03.380Z,2.10
2023-02-11T03:49:03.374Z,2.12
2023-02-11T03:50:03.371Z,2.12
2023-02-11T03:51:03.339Z,2.17
2023-02-11T03:52:03.345Z,2.15
2023-02-11T03:53:03.318Z,2.17
2023-02-11T03:54:03.306Z,2.15
2023-02-11T03:55:03.297Z,2.12
2023-02-11T03:56:03.288Z,2.15
2023-02-11T03:57:03.271Z,2.14
2023-02-11T03:58:03.266Z,2.15
2023-02-11T03:59:03.251Z,2.17
2023-02-11T04:00:03.247Z,2.18
2023-02-11T04:01:03.277Z,2.15
2023-02-11T04:02:03.221Z,2.12
2023-02-11T04:03:03.245Z,2.12
2023-02-11T04:04:03.204Z,2.15
2023-02-11T04:05:03.185Z,2.15
2023-02-11T04:06:03.185Z,2.15
2023-02-11T04:07:03.168Z,2.17
2023-02-11T04:08:03.167Z,2.18
2023-02-11T04:09:03.156Z,2.15
2023-02-11T04:10:03.149Z,2.15
2023-02-11T04:11:03.136Z,2.17
2023-02-11T04:12:03.124Z,2.17
2023-02-11T04:13:03.110Z,2.17
2023-02-11T04:14:03.103Z,2.17
2023-02-11T04:15:03.085Z,2.18
2023-02-11T04:16:03.165Z,2.18
2023-02-11T04:17:03.063Z,2.21
2023-02-11T04:18:03.059Z,2.19
2023-02-11T04:19:03.054Z,2.22
2023-02-11T04:20:03.043Z,2.22
2023-02-11T04:21:03.021Z,2.29
2023-02-11T04:22:03.020Z,2.22
2023-02-11T04:23:03.001Z,2.25
2023-02-11T04:24:02.996Z,2.25
2023-02-11T04:25:02.986Z,2.22
2023-02-11T04:26:02.974Z,2.29
2023-02-11T04:27:02.968Z,2.28
2023-02-11T04:28:03.013Z,2.28
2023-02-11T04:29:02.937Z,2.24
2023-02-11T04:30:02.937Z,2.24
2023-02-11T04:31:02.985Z,2.30
2023-02-11T04:32:02.973Z,2.28
2023-02-11T04:33:02.912Z,2.25
2023-02-11T04:34:02.905Z,2.29
2023-02-11T04:35:02.880Z,2.30
2023-02-11T04:36:02.908Z,2.33
2023-02-11T04:37:02.855Z,2.24
2023-02-11T04:38:02.853Z,2.30
2023-02-11T04:39:02.835Z,2.28
2023-02-11T04:40:02.837Z,2.29
2023-02-11T04:41:02.824Z,2.32
2023-02-11T04:42:02.809Z,2.28
2023-02-11T04:43:02.801Z,2.30
2023-02-11T04:44:02.791Z,2.29
2023-02-11T04:45:02.785Z,2.30
2023-02-11T04:46:02.812Z,2.30
2023-02-11T04:47:02.752Z,2.30
2023-02-11T04:48:02.752Z,2.33
2023-02-11T04:49:02.730Z,2.29
2023-02-11T04:50:02.731Z,2.28
2023-02-11T04:51:02.717Z,2.30
2023-02-11T04:52:02.702Z,2.32
2023-02-11T04:53:03.141Z,2.32
2023-02-11T04:54:02.684Z,2.33
2023-02-11T04:55:02.674Z,2.33
2023-02-11T04:56:02.660Z,2.32
2023-02-11T04:57:02.664Z,2.35
2023-02-11T04:58:02.648Z,2.32
2023-02-11T04:59:02.638Z,2.36
2023-02-11T05:00:02.627Z,2.32
2023-02-11T05:01:02.625Z,2.36
2023-02-11T05:02:02.608Z,2.36
2023-02-11T05:03:02.588Z,2.35
2023-02-11T05:04:02.602Z,2.35
2023-02-11T05:05:02.563Z,2.36
2023-02-11T05:06:02.558Z,2.37
2023-02-11T05:07:02.555Z,2.33
2023-02-11T05:08:02.546Z,2.35
2023-02-11T05:09:02.522Z,2.32
2023-02-11T05:10:02.533Z,2.35
2023-02-11T05:11:02.509Z,2.33
2023-02-11T05:12:02.495Z,2.39
2023-02-11T05:13:02.487Z,2.37
2023-02-11T05:14:02.483Z,2.36
2023-02-11T05:15:02.506Z,2.37
2023-02-11T05:16:02.463Z,2.37
2023-02-11T05:17:02.488Z,2.36
2023-02-11T05:18:03.198Z,2.37
2023-02-11T05:19:02.426Z,2.36
2023-02-11T05:20:02.416Z,2.33
2023-02-11T05:21:02.402Z,2.42
2023-02-11T05:22:03.659Z,2.35
2023-02-11T05:23:02.558Z,2.33
2023-02-11T05:24:02.372Z,2.37
2023-02-11T05:25:02.378Z,2.36
2023-02-11T05:26:02.352Z,2.35
2023-02-11T05:27:02.341Z,2.36
2023-02-11T05:28:02.863Z,2.39
2023-02-11T05:29:02.318Z,2.37
2023-02-11T05:30:02.313Z,2.39
2023-02-11T05:31:02.391Z,2.37
2023-02-11T05:32:02.290Z,2.35
2023-02-11T05:33:02.828Z,2.37
2023-02-11T05:34:02.277Z,2.42
2023-02-11T05:35:02.259Z,2.40
2023-02-11T05:36:02.258Z,2.42
2023-02-11T05:37:02.318Z,2.42
2023-02-11T05:38:03.026Z,2.37
2023-02-11T05:39:02.224Z,2.40
2023-02-11T05:40:02.228Z,2.39
2023-02-11T05:41:02.190Z,2.42
2023-02-11T05:42:02.206Z,2.40
2023-02-11T05:43:02.520Z,2.36
2023-02-11T05:44:02.172Z,2.40
2023-02-11T05:45:02.165Z,2.42
2023-02-11T05:46:02.174Z,2.39
2023-02-11T05:47:02.137Z,2.42
2023-02-11T05:48:02.595Z,2.43
2023-02-11T05:49:02.135Z,2.43
2023-02-11T05:50:02.106Z,2.40
2023-02-11T05:51:02.100Z,2.45
2023-02-11T05:52:02.103Z,2.40
2023-02-11T05:53:03.049Z,2.40
2023-02-11T05:54:02.072Z,2.43
2023-02-11T05:55:02.057Z,2.40
2023-02-11T05:56:02.050Z,2.42
2023-02-11T05:57:02.037Z,2.47
2023-02-11T05:58:02.817Z,2.43
2023-02-11T05:59:02.021Z,2.43
2023-02-11T06:00:02.016Z,2.47
2023-02-11T06:01:02.017Z,2.43
2023-02-11T06:02:02.001Z,2.45
2023-02-11T06:03:02.766Z,2.43
2023-02-11T06:04:01.996Z,2.45
2023-02-11T06:05:01.957Z,2.47
2023-02-11T06:06:01.951Z,2.47
2023-02-11T06:07:01.926Z,2.45
2023-02-11T06:08:02.268Z,2.48
2023-02-11T06:09:01.912Z,2.45
2023-02-11T06:10:01.903Z,2.48
2023-02-11T06:11:01.888Z,2.51
2023-02-11T06:12:01.881Z,2.53
2023-02-11T06:13:02.643Z,2.50
2023-02-11T06:14:02.041Z,2.50
2023-02-11T06:15:01.848Z,2.50
2023-02-11T06:16:01.907Z,2.51
2023-02-11T06:17:01.824Z,2.51
2023-02-11T06:18:01.822Z,2.53
2023-02-11T06:19:02.221Z,2.55
2023-02-11T06:20:01.821Z,2.57
2023-02-11T06:21:01.755Z,2.55
2023-02-11T06:22:01.745Z,2.53
2023-02-11T06:23:01.767Z,2.55
2023-02-11T06:24:01.718Z,2.53
2023-02-11T06:25:02.436Z,2.51
2023-02-11T06:26:01.697Z,2.54
2023-02-11T06:27:01.670Z,2.54
2023-02-11T06:28:01.748Z,2.55
2023-02-11T06:29:01.657Z,2.55
2023-02-11T06:30:01.645Z,2.53
2023-02-11T06:31:01.781Z,2.53
2023-02-11T06:32:01.769Z,2.54
2023-02-11T06:33:01.613Z,2.51
2023-02-11T06:34:01.611Z,2.55
2023-02-11T06:35:01.588Z,2.57
2023-02-11T06:36:01.585Z,2.57
2023-02-11T06:37:01.579Z,2.57
2023-02-11T06:38:01.562Z,2.57
2023-02-11T06:39:01.555Z,2.61
2023-02-11T06:40:01.585Z,2.60
2023-02-11T06:41:01.533Z,2.55
2023-02-11T06:42:01.527Z,2.54
2023-02-11T06:43:01.524Z,2.57
2023-02-11T06:44:01.548Z,2.55
2023-02-11T06:45:01.536Z,2.57
2023-02-11T06:46:01.483Z,2.61
2023-02-11T06:47:01.467Z,2.55
2023-02-11T06:48:01.463Z,2.60
2023-02-11T06:49:01.447Z,2.57
2023-02-11T06:50:01.444Z,2.60
2023-02-11T06:51:01.430Z,2.58
2023-02-11T06:52:01.441Z,2.57
2023-02-11T06:53:01.412Z,2.58
2023-02-11T06:54:01.408Z,2.58
2023-02-11T06:55:01.383Z,2.58
2023-02-11T06:56:01.379Z,2.63
2023-02-11T06:57:01.371Z,2.63
2023-02-11T06:58:01.359Z,2.61
2023-02-11T06:59:01.368Z,2.60
2023-02-11T07:00:01.346Z,2.61
2023-02-11T07:01:01.323Z,2.63
2023-02-11T07:02:01.342Z,2.68
2023-02-11T07:03:01.318Z,2.66
2023-02-11T07:04:01.301Z,2.65
2023-02-11T07:05:01.294Z,2.65
2023-02-11T07:06:01.296Z,2.65
2023-02-11T07:07:01.273Z,2.63
2023-02-11T07:08:01.270Z,2.66
2023-02-11T07:09:01.245Z,2.68
2023-02-11T07:10:01.235Z,2.71
2023-02-11T07:11:01.223Z,2.71
2023-02-11T07:12:01.212Z,2.71
2023-02-11T07:13:01.199Z,2.71
2023-02-11T07:14:01.204Z,2.73
2023-02-11T07:15:01.195Z,2.73
2023-02-11T07:16:01.188Z,2.73
2023-02-11T07:17:01.159Z,2.73
2023-02-11T07:18:01.168Z,2.72
2023-02-11T07:19:01.164Z,2.75
2023-02-11T07:20:01.135Z,2.76
2023-02-11T07:21:01.154Z,2.79
2023-02-11T07:22:01.113Z,2.79
2023-02-11T07:23:01.098Z,2.76
2023-02-11T07:24:01.098Z,2.76
2023-02-11T07:25:01.076Z,2.81
2023-02-11T07:26:01.084Z,2.78
2023-02-11T07:27:01.061Z,2.76
2023-02-11T07:28:01.067Z,2.84
2023-02-11T07:29:01.045Z,2.82
2023-02-11T07:30:01.047Z,2.84
2023-02-11T07:31:01.100Z,2.87
2023-02-11T07:32:01.072Z,2.84
2023-02-11T07:33:00.996Z,2.87
2023-02-11T07:34:01.008Z,2.84
2023-02-11T07:35:01.042Z,2.84
2023-02-11T07:36:00.973Z,2.86
2023-02-11T07:37:00.951Z,2.84
2023-02-11T07:38:00.947Z,2.87
2023-02-11T07:39:00.940Z,2.87
2023-02-11T07:40:00.946Z,2.87
2023-02-11T07:41:00.919Z,2.86
2023-02-11T07:42:00.903Z,2.93
2023-02-11T07:43:00.893Z,2.89
2023-02-11T07:44:00.890Z,2.87
2023-02-11T07:45:00.872Z,2.93
2023-02-11T07:46:00.868Z,2.89
2023-02-11T07:47:00.919Z,2.89
2023-02-11T07:48:00.842Z,2.93
2023-02-11T07:49:00.831Z,2.94
2023-02-11T07:50:00.830Z,2.91
2023-02-11T07:51:00.804Z,2.97
2023-02-11T07:52:00.802Z,2.93
2023-02-11T07:53:00.789Z,2.96
2023-02-11T07:54:00.801Z,2.96
2023-02-11T07:55:03.171Z,2.93
2023-02-11T07:56:00.762Z,2.94
2023-02-11T07:57:00.741Z,2.99
2023-02-11T07:58:00.741Z,2.97
2023-02-11T07:59:00.789Z,2.97
2023-02-11T08:00:00.718Z,2.99
2023-02-11T08:01:00.770Z,2.99
2023-02-11T08:02:00.805Z,3.02
2023-02-11T08:03:00.688Z,3.00
2023-02-11T08:04:00.678Z,3.04
2023-02-11T08:05:00.666Z,3.02
2023-02-11T08:06:00.659Z,3.02
2023-02-11T08:07:00.646Z,3.05
2023-02-11T08:08:00.636Z,3.02
2023-02-11T08:09:00.673Z,3.00
2023-02-11T08:10:00.626Z,3.02
2023-02-11T08:11:00.607Z,3.08
2023-02-11T08:12:00.591Z,2.99
2023-02-11T08:13:00.586Z,3.02
2023-02-11T08:14:00.594Z,2.97
2023-02-11T08:15:00.568Z,3.02
2023-02-11T08:16:00.659Z,3.05
2023-02-11T08:17:00.540Z,3.04
2023-02-11T08:18:00.529Z,3.02
2023-02-11T08:19:00.527Z,3.02
2023-02-11T08:20:00.509Z,3.02
2023-02-11T08:21:00.501Z,3.04
2023-02-11T08:22:00.487Z,3.00
2023-02-11T08:23:00.484Z,3.02
2023-02-11T08:24:00.473Z,3.07
2023-02-11T08:25:00.456Z,3.05
2023-02-11T08:26:00.449Z,3.02
2023-02-11T08:27:00.439Z,3.05
2023-02-11T08:28:00.459Z,3.00
2023-02-11T08:29:00.427Z,3.05
2023-02-11T08:30:00.420Z,3.05
2023-02-11T08:31:00.406Z,3.02
2023-02-11T08:32:00.453Z,3.05
2023-02-11T08:33:00.381Z,3.07
2023-02-11T08:34:00.381Z,3.11
2023-02-11T08:35:00.366Z,3.11
2023-02-11T08:36:00.344Z,3.09
2023-02-11T08:37:00.339Z,3.12
2023-02-11T08:38:00.327Z,3.14
2023-02-11T08:39:15.835Z,3.12
2023-02-11T08:40:00.305Z,3.17
2023-02-11T08:41:00.302Z,3.18
2023-02-11T08:42:00.279Z,3.17
2023-02-11T08:43:00.277Z,3.22
2023-02-11T08:44:00.282Z,3.17
2023-02-11T08:45:00.262Z,3.20
2023-02-11T08:46:02.192Z,3.20
2023-02-11T08:47:00.233Z,3.17
2023-02-11T08:48:00.219Z,3.20
2023-02-11T08:49:00.231Z,3.22
2023-02-11T08:50:00.198Z,3.26
2023-02-11T08:51:00.207Z,3.25
2023-02-11T08:52:00.173Z,3.25
2023-02-11T08:53:00.177Z,3.30
2023-02-11T08:54:00.477Z,3.30
2023-02-11T08:55:00.149Z,3.29
2023-02-11T08:56:00.136Z,3.33
2023-02-11T08:57:00.132Z,3.29
2023-02-11T08:58:00.124Z,3.33
2023-02-11T08:59:00.926Z,3.33
2023-02-11T09:00:00.115Z,3.30
2023-02-11T09:01:00.181Z,3.35
2023-02-11T09:02:00.123Z,3.36
2023-02-11T09:03:00.068Z,3.37
2023-02-11T09:04:00.334Z,3.36
2023-02-11T09:05:00.051Z,3.42
2023-02-11T09:06:00.035Z,3.44
2023-02-11T09:07:00.031Z,3.44
2023-02-11T09:08:00.018Z,3.45
2023-02-11T09:09:00.837Z,3.48
2023-02-11T09:09:59.996Z,3.42
2023-02-11T09:10:59.989Z,3.46
2023-02-11T09:11:59.976Z,3.48
2023-02-11T09:12:59.973Z,3.51
2023-02-11T09:14:00.286Z,3.49
2023-02-11T09:14:59.962Z,3.49
2023-02-11T09:15:59.928Z,3.51
2023-02-11T09:16:59.972Z,3.55
2023-02-11T09:17:59.911Z,3.60
2023-02-11T09:19:00.604Z,3.59
2023-02-11T09:19:59.895Z,3.66
2023-02-11T09:20:59.884Z,3.70
2023-02-11T09:21:59.873Z,3.76
2023-02-11T09:22:59.859Z,3.82
2023-02-11T09:23:59.865Z,3.81
2023-02-11T09:24:59.848Z,3.88
2023-02-11T09:25:59.838Z,3.90
2023-02-11T09:26:59.821Z,3.90
2023-02-11T09:27:59.830Z,3.92
2023-02-11T09:28:59.852Z,3.92
2023-02-11T09:29:59.788Z,3.96
2023-02-11T09:30:59.906Z,3.98
2023-02-11T09:31:59.899Z,4.03
2023-02-11T09:32:59.801Z,4.06
2023-02-11T09:34:00.181Z,4.09
2023-02-11T09:34:59.786Z,4.12
2023-02-11T09:35:59.727Z,4.21
2023-02-11T09:36:59.722Z,4.17
2023-02-11T09:37:59.705Z,4.20
2023-02-11T09:38:59.698Z,4.24
2023-02-11T09:39:59.690Z,4.30
2023-02-11T09:40:59.682Z,4.30
2023-02-11T09:41:59.661Z,4.35
2023-02-11T09:43:03.742Z,4.38
2023-02-11T09:43:59.649Z,4.41
2023-02-11T09:44:59.644Z,4.36
2023-02-11T09:45:59.665Z,4.39
2023-02-11T09:46:59.631Z,4.43
2023-02-11T09:47:59.602Z,4.49
2023-02-11T09:48:59.595Z,4.56
2023-02-11T09:49:59.631Z,4.60
2023-02-11T09:50:59.578Z,4.63
2023-02-11T09:51:59.564Z,4.67
2023-02-11T09:52:59.563Z,4.71
2023-02-11T09:54:01.304Z,4.75
2023-02-11T09:54:59.545Z,4.79
2023-02-11T09:55:59.541Z,4.86
2023-02-11T09:56:59.517Z,4.89
2023-02-11T09:57:59.503Z,4.93
2023-02-11T09:58:59.503Z,4.93
2023-02-11T09:59:59.482Z,4.97
2023-02-11T10:00:59.512Z,5.01
2023-02-11T10:01:59.459Z,5.00
2023-02-11T10:02:59.457Z,5.00
2023-02-11T10:03:59.465Z,5.01
2023-02-11T10:04:59.448Z,4.98
2023-02-11T10:05:59.418Z,4.97
2023-02-11T10:06:59.435Z,4.98
2023-02-11T10:07:59.403Z,4.98
2023-02-11T10:08:59.420Z,4.96
2023-02-11T10:09:59.386Z,4.94
2023-02-11T10:10:59.385Z,4.98
2023-02-11T10:11:59.355Z,4.97
2023-02-11T10:12:59.358Z,4.96
2023-02-11T10:13:59.339Z,4.86
2023-02-11T10:14:59.342Z,4.79
2023-02-11T10:15:59.349Z,4.78
2023-02-11T10:16:59.311Z,4.77
2023-02-11T10:17:59.302Z,4.77
2023-02-11T10:18:59.301Z,4.71
2023-02-11T10:19:59.285Z,4.69
2023-02-11T10:20:59.266Z,4.67
2023-02-11T10:21:59.253Z,4.74
2023-02-11T10:22:59.246Z,4.78
2023-02-11T10:23:59.237Z,4.77
2023-02-11T10:24:59.250Z,4.79
2023-02-11T10:25:59.229Z,4.85
2023-02-11T10:26:59.206Z,4.88
2023-02-11T10:27:59.250Z,4.88
2023-02-11T10:28:59.182Z,4.85
2023-02-11T10:29:59.219Z,4.86
2023-02-11T10:30:59.342Z,4.79
2023-02-11T10:31:59.214Z,4.79
2023-02-11T10:32:59.139Z,4.85
2023-02-11T10:33:59.126Z,4.88
2023-02-11T10:34:59.129Z,4.88
2023-02-11T10:35:59.108Z,4.89
2023-02-11T10:36:59.100Z,4.91
2023-02-11T10:37:59.082Z,4.96
2023-02-11T10:38:59.092Z,4.94
2023-02-11T10:39:59.133Z,4.91
2023-02-11T10:40:59.087Z,4.93
2023-02-11T10:41:59.048Z,4.94
2023-02-11T10:42:59.043Z,4.97
2023-02-11T10:43:59.025Z,4.98
2023-02-11T10:44:59.023Z,4.94
2023-02-11T10:45:59.028Z,4.98
2023-02-11T10:46:58.996Z,4.93
2023-02-11T10:47:58.993Z,4.91
2023-02-11T10:48:58.977Z,4.86
2023-02-11T10:49:58.976Z,4.85
2023-02-11T10:50:58.953Z,4.83
2023-02-11T10:51:58.943Z,4.85
2023-02-11T10:52:58.934Z,4.79
2023-02-11T10:53:58.917Z,4.82
2023-02-11T10:54:58.921Z,4.88
2023-02-11T10:55:58.895Z,4.88
2023-02-11T10:56:58.897Z,4.89
2023-02-11T10:57:58.894Z,4.85
2023-02-11T10:58:58.870Z,4.91
2023-02-11T10:59:58.866Z,4.91
2023-02-11T11:00:58.854Z,4.89
2023-02-11T11:01:58.886Z,4.85
2023-02-11T11:02:58.838Z,4.86
2023-02-11T11:03:58.828Z,4.85
2023-02-11T11:04:58.816Z,4.88
2023-02-11T11:05:58.905Z,4.88
2023-02-11T11:06:58.793Z,4.85
2023-02-11T11:07:58.779Z,4.89
2023-02-11T11:08:58.765Z,4.94
2023-02-11T11:09:58.757Z,4.98
2023-02-11T11:10:58.748Z,4.94
2023-02-11T11:11:58.729Z,4.98
2023-02-11T11:12:58.724Z,4.98
2023-02-11T11:13:58.710Z,4.97
2023-02-11T11:14:59.022Z,5.01
2023-02-11T11:15:58.734Z,5.01
2023-02-11T11:16:58.687Z,5.04
2023-02-11T11:18:15.380Z,5.07
2023-02-11T11:18:58.673Z,5.09
2023-02-11T11:19:59.447Z,5.11
2023-02-11T11:20:58.640Z,5.11
2023-02-11T11:21:58.627Z,5.12
2023-02-11T11:22:58.620Z,5.15
2023-02-11T11:23:58.612Z,5.18
2023-02-11T11:24:58.960Z,5.16
2023-02-11T11:25:58.589Z,5.21
2023-02-11T11:26:58.578Z,5.21
2023-02-11T11:27:58.594Z,5.21
2023-02-11T11:28:58.576Z,5.24
2023-02-11T11:29:59.224Z,5.21
2023-02-11T11:30:58.634Z,5.22
2023-02-11T11:31:58.595Z,5.22
2023-02-11T11:32:58.519Z,5.15
2023-02-11T11:33:58.502Z,5.21
2023-02-11T11:34:58.632Z,5.22
2023-02-11T11:35:58.477Z,5.21
2023-02-11T11:36:58.474Z,5.21
2023-02-11T11:38:01.379Z,5.22
2023-02-11T11:38:58.452Z,5.25
2023-02-11T11:39:58.569Z,5.25
2023-02-11T11:40:58.445Z,5.27
2023-02-11T11:41:58.441Z,5.27
2023-02-11T11:42:58.412Z,5.30
2023-02-11T11:43:58.412Z,5.30
2023-02-11T11:44:58.416Z,5.29
2023-02-11T11:45:58.378Z,5.33
2023-02-11T11:46:58.406Z,5.29
2023-02-11T11:47:58.376Z,5.32
2023-02-11T11:48:58.361Z,5.30
2023-02-11T11:49:58.744Z,5.33
2023-02-11T11:50:58.328Z,5.34
2023-02-11T11:51:58.317Z,5.34
2023-02-11T11:52:58.306Z,5.37
2023-02-11T11:53:58.288Z,5.41
2023-02-11T11:54:58.619Z,5.37
2023-02-11T11:55:59.814Z,5.39
2023-02-11T11:56:58.286Z,5.40
2023-02-11T11:57:58.253Z,5.37
2023-02-11T11:58:58.265Z,5.37
2023-02-11T11:59:59.092Z,5.37
2023-02-11T12:00:58.224Z,5.40
2023-02-11T12:01:58.306Z,5.37
2023-02-11T12:02:58.239Z,5.41
2023-02-11T12:03:58.209Z,5.41
2023-02-11T12:04:58.614Z,5.40
2023-02-11T12:05:58.168Z,5.43
2023-02-11T12:06:58.160Z,5.39
2023-02-11T12:07:58.154Z,5.44
2023-02-11T12:08:58.140Z,5.47
2023-02-11T12:09:58.563Z,5.48
2023-02-11T12:10:58.136Z,5.47
2023-02-11T12:11:58.111Z,5.44
2023-02-11T12:12:58.104Z,5.50
2023-02-11T12:13:58.086Z,5.48
2023-02-11T12:14:58.090Z,5.47
2023-02-11T12:15:58.077Z,5.50
2023-02-11T12:16:58.053Z,5.47
2023-02-11T12:17:58.067Z,5.44
2023-02-11T12:18:58.045Z,5.47
2023-02-11T12:19:58.031Z,5.51
2023-02-11T12:20:58.020Z,5.50
2023-02-11T12:21:58.008Z,5.47
2023-02-11T12:22:57.996Z,5.47
2023-02-11T12:23:57.984Z,5.48
2023-02-11T12:24:57.972Z,5.43
2023-02-11T12:25:57.972Z,5.48
2023-02-11T12:26:57.954Z,5.44
2023-02-11T12:27:57.998Z,5.41
2023-02-11T12:28:57.930Z,5.41
2023-02-11T12:29:57.923Z,5.37
2023-02-11T12:30:57.961Z,5.39
2023-02-11T12:31:57.976Z,5.34
2023-02-11T12:32:57.891Z,5.39
2023-02-11T12:33:57.886Z,5.37
2023-02-11T12:34:57.869Z,5.37
2023-02-11T12:35:57.869Z,5.36
2023-02-11T12:36:57.854Z,5.40
2023-02-11T12:37:57.845Z,5.39
2023-02-11T12:38:57.830Z,5.37
2023-02-11T12:39:57.837Z,5.36
2023-02-11T12:40:57.813Z,5.36
2023-02-11T12:41:57.809Z,5.33
2023-02-11T12:42:57.789Z,5.34
2023-02-11T12:43:57.782Z,5.34
2023-02-11T12:44:57.782Z,5.34
2023-02-11T12:45:57.837Z,5.37
2023-02-11T12:46:57.749Z,5.36
2023-02-11T12:47:57.742Z,5.33
2023-02-11T12:48:57.737Z,5.36
2023-02-11T12:49:57.719Z,5.39
2023-02-11T12:50:57.711Z,5.40
2023-02-11T12:51:57.706Z,5.44
2023-02-11T12:52:57.693Z,5.43
2023-02-11T12:53:57.678Z,5.50
2023-02-11T12:54:57.672Z,5.47
2023-02-11T12:55:57.667Z,5.48
2023-02-11T12:56:57.646Z,5.52
2023-02-11T12:57:57.641Z,5.50
2023-02-11T12:58:57.620Z,5.51
2023-02-11T12:59:57.621Z,5.52
2023-02-11T13:00:57.692Z,5.50
2023-02-11T13:01:57.642Z,5.51
2023-02-11T13:02:57.594Z,5.52
2023-02-11T13:03:57.578Z,5.50
2023-02-11T13:04:57.564Z,5.50
2023-02-11T13:05:57.558Z,5.54
2023-02-11T13:06:57.544Z,5.54
2023-02-11T13:07:57.569Z,5.58
2023-02-11T13:08:57.588Z,5.58
2023-02-11T13:09:57.517Z,5.55
2023-02-11T13:10:57.504Z,5.58
2023-02-11T13:11:57.503Z,5.61
2023-02-11T13:12:57.488Z,5.61
2023-02-11T13:13:57.596Z,5.59
2023-02-11T13:14:57.464Z,5.65
2023-02-11T13:15:57.472Z,5.69
2023-02-11T13:16:57.536Z,5.73
2023-02-11T13:17:57.436Z,5.70